sensor_id;sensor_type;location;lat;lon;timestamp;temperature;humidity
27306;DHT22;14792;50.886;6.468;2023-04-24T00:00:20;10.60;99.90
27306;DHT22;14792;50.886;6.468;2023-04-24T00:03:22;10.70;99.90
27306;DHT22;14792;50.886;6.468;2023-04-24T00:06:23;10.70;99.90
27306;DHT22;14792;50.886;6.468;2023-04-24T00:09:25;10.70;99.90
27306;DHT22;14792;50.886;6.468;2023-04-24T00:12:26;10.70;99.90
27306;DHT22;14792;50.886;6.468;2023-04-24T00:15:28;10.70;99.90
27306;DHT22;14792;50.886;6.468;2023-04-24T00:18:30;10.70;99.90
27306;DHT22;14792;50.886;6.468;2023-04-24T00:21:31;10.60;99.90
27306;DHT22;14792;50.886;6.468;2023-04-24T00:24:33;10.70;99.90
27306;DHT22;14792;50.886;6.468;2023-04-24T00:27:34;10.70;99.90
27306;DHT22;14792;50.886;6.468;2023-04-24T00:30:36;10.60;99.90
27306;DHT22;14792;50.886;6.468;2023-04-24T00:33:38;10.70;99.90
27306;DHT22;14792;50.886;6.468;2023-04-24T00:36:39;10.60;99.90
27306;DHT22;14792;50.886;6.468;2023-04-24T00:39:41;10.60;99.90
27306;DHT22;14792;50.886;6.468;2023-04-24T00:42:43;10.60;99.90
27306;DHT22;14792;50.886;6.468;2023-04-24T00:45:44;10.50;99.90
27306;DHT22;14792;50.886;6.468;2023-04-24T00:48:45;10.50;99.90
27306;DHT22;14792;50.886;6.468;2023-04-24T00:51:47;10.50;99.90
27306;DHT22;14792;50.886;6.468;2023-04-24T00:54:49;10.40;99.90
27306;DHT22;14792;50.886;6.468;2023-04-24T00:57:50;10.40;99.90
27306;DHT22;14792;50.886;6.468;2023-04-24T01:00:52;10.30;99.90
27306;DHT22;14792;50.886;6.468;2023-04-24T01:03:53;10.10;99.90
27306;DHT22;14792;50.886;6.468;2023-04-24T01:06:55;10.00;99.90
27306;DHT22;14792;50.886;6.468;2023-04-24T01:09:57;9.90;99.90
27306;DHT22;14792;50.886;6.468;2023-04-24T01:12:58;9.80;99.90
27306;DHT22;14792;50.886;6.468;2023-04-24T01:16:00;9.70;99.90
27306;DHT22;14792;50.886;6.468;2023-04-24T01:19:01;9.60;99.90
27306;DHT22;14792;50.886;6.468;2023-04-24T01:25:05;9.40;99.90
27306;DHT22;14792;50.886;6.468;2023-04-24T01:28:07;9.30;99.90
27306;DHT22;14792;50.886;6.468;2023-04-24T01:31:09;9.20;99.90
27306;DHT22;14792;50.886;6.468;2023-04-24T01:34:10;9.20;99.90
27306;DHT22;14792;50.886;6.468;2023-04-24T01:37:12;9.10;99.90
27306;DHT22;14792;50.886;6.468;2023-04-24T01:40:13;9.20;99.90
27306;DHT22;14792;50.886;6.468;2023-04-24T01:43:15;9.10;99.90
27306;DHT22;14792;50.886;6.468;2023-04-24T01:46:16;9.10;99.90
27306;DHT22;14792;50.886;6.468;2023-04-24T01:49:18;9.20;99.90
27306;DHT22;14792;50.886;6.468;2023-04-24T01:52:20;9.10;99.90
27306;DHT22;14792;50.886;6.468;2023-04-24T01:55:21;9.20;99.90
27306;DHT22;14792;50.886;6.468;2023-04-24T01:58:23;9.20;99.90
27306;DHT22;14792;50.886;6.468;2023-04-24T02:01:24;9.20;99.90
27306;DHT22;14792;50.886;6.468;2023-04-24T02:04:26;9.20;99.90
27306;DHT22;14792;50.886;6.468;2023-04-24T02:07:28;9.20;99.90
27306;DHT22;14792;50.886;6.468;2023-04-24T02:10:29;9.20;99.90
27306;DHT22;14792;50.886;6.468;2023-04-24T02:13:31;9.20;99.90
27306;DHT22;14792;50.886;6.468;2023-04-24T02:16:32;9.20;99.90
27306;DHT22;14792;50.886;6.468;2023-04-24T02:19:34;9.20;99.90
27306;DHT22;14792;50.886;6.468;2023-04-24T02:22:35;9.20;99.90
27306;DHT22;14792;50.886;6.468;2023-04-24T02:25:37;9.20;99.90
27306;DHT22;14792;50.886;6.468;2023-04-24T02:28:39;9.20;99.90
27306;DHT22;14792;50.886;6.468;2023-04-24T02:31:40;9.20;99.90
27306;DHT22;14792;50.886;6.468;2023-04-24T02:34:42;9.20;99.90
27306;DHT22;14792;50.886;6.468;2023-04-24T02:37:43;9.20;99.90
27306;DHT22;14792;50.886;6.468;2023-04-24T02:40:45;9.20;99.90
27306;DHT22;14792;50.886;6.468;2023-04-24T02:43:47;9.20;99.90
27306;DHT22;14792;50.886;6.468;2023-04-24T02:46:48;9.20;99.90
27306;DHT22;14792;50.886;6.468;2023-04-24T02:49:50;9.20;99.90
27306;DHT22;14792;50.886;6.468;2023-04-24T02:52:51;9.20;99.90
27306;DHT22;14792;50.886;6.468;2023-04-24T02:55:53;9.20;99.90
27306;DHT22;14792;50.886;6.468;2023-04-24T02:58:54;9.20;99.90
27306;DHT22;14792;50.886;6.468;2023-04-24T03:01:56;9.10;99.90
27306;DHT22;14792;50.886;6.468;2023-04-24T03:04:58;9.10;99.90
27306;DHT22;14792;50.886;6.468;2023-04-24T03:07:59;9.10;99.90
27306;DHT22;14792;50.886;6.468;2023-04-24T03:11:01;9.10;99.90
27306;DHT22;14792;50.886;6.468;2023-04-24T03:14:02;9.10;99.90
27306;DHT22;14792;50.886;6.468;2023-04-24T03:17:04;9.10;99.90
27306;DHT22;14792;50.886;6.468;2023-04-24T03:20:06;9.10;99.90
27306;DHT22;14792;50.886;6.468;2023-04-24T03:23:08;9.10;99.90
27306;DHT22;14792;50.886;6.468;2023-04-24T03:26:10;9.10;99.90
27306;DHT22;14792;50.886;6.468;2023-04-24T03:29:11;9.10;99.90
27306;DHT22;14792;50.886;6.468;2023-04-24T03:32:13;9.10;99.90
27306;DHT22;14792;50.886;6.468;2023-04-24T03:35:15;9.10;99.90
27306;DHT22;14792;50.886;6.468;2023-04-24T03:38:16;9.00;99.90
27306;DHT22;14792;50.886;6.468;2023-04-24T03:41:18;9.10;99.90
27306;DHT22;14792;50.886;6.468;2023-04-24T03:44:19;9.10;99.90
27306;DHT22;14792;50.886;6.468;2023-04-24T03:47:21;9.10;99.90
27306;DHT22;14792;50.886;6.468;2023-04-24T03:50:23;9.10;99.90
27306;DHT22;14792;50.886;6.468;2023-04-24T03:53:24;9.10;99.90
27306;DHT22;14792;50.886;6.468;2023-04-24T03:56:26;9.10;99.90
27306;DHT22;14792;50.886;6.468;2023-04-24T03:59:27;9.00;99.90
27306;DHT22;14792;50.886;6.468;2023-04-24T04:02:29;9.00;99.90
27306;DHT22;14792;50.886;6.468;2023-04-24T04:05:30;9.00;99.90
27306;DHT22;14792;50.886;6.468;2023-04-24T04:08:32;9.00;99.90
27306;DHT22;14792;50.886;6.468;2023-04-24T04:11:34;9.00;99.90
27306;DHT22;14792;50.886;6.468;2023-04-24T04:14:35;9.00;99.90
27306;DHT22;14792;50.886;6.468;2023-04-24T04:17:37;9.00;99.90
27306;DHT22;14792;50.886;6.468;2023-04-24T04:20:38;8.90;99.90
27306;DHT22;14792;50.886;6.468;2023-04-24T04:23:40;8.90;99.90
27306;DHT22;14792;50.886;6.468;2023-04-24T04:26:42;8.90;99.90
27306;DHT22;14792;50.886;6.468;2023-04-24T04:29:43;8.80;99.90
27306;DHT22;14792;50.886;6.468;2023-04-24T04:32:45;8.80;99.90
27306;DHT22;14792;50.886;6.468;2023-04-24T04:35:46;8.80;99.90
27306;DHT22;14792;50.886;6.468;2023-04-24T04:38:51;8.70;99.90
27306;DHT22;14792;50.886;6.468;2023-04-24T04:41:52;8.70;99.90
27306;DHT22;14792;50.886;6.468;2023-04-24T04:44:54;8.80;99.90
27306;DHT22;14792;50.886;6.468;2023-04-24T04:47:56;8.70;99.90
27306;DHT22;14792;50.886;6.468;2023-04-24T04:50:57;8.80;99.90
27306;DHT22;14792;50.886;6.468;2023-04-24T04:53:59;8.80;99.90
27306;DHT22;14792;50.886;6.468;2023-04-24T04:57:00;8.70;99.90
27306;DHT22;14792;50.886;6.468;2023-04-24T05:00:02;8.70;99.90
27306;DHT22;14792;50.886;6.468;2023-04-24T05:03:03;8.70;99.90
27306;DHT22;14792;50.886;6.468;2023-04-24T05:06:05;8.70;99.90
27306;DHT22;14792;50.886;6.468;2023-04-24T05:09:07;8.70;99.90
27306;DHT22;14792;50.886;6.468;2023-04-24T05:12:08;8.70;99.90
27306;DHT22;14792;50.886;6.468;2023-04-24T05:15:10;8.60;99.90
27306;DHT22;14792;50.886;6.468;2023-04-24T05:18:12;8.60;99.90
27306;DHT22;14792;50.886;6.468;2023-04-24T05:21:13;8.60;99.90
27306;DHT22;14792;50.886;6.468;2023-04-24T05:24:15;8.60;99.90
27306;DHT22;14792;50.886;6.468;2023-04-24T05:27:17;8.60;99.90
27306;DHT22;14792;50.886;6.468;2023-04-24T05:30:18;8.60;99.90
27306;DHT22;14792;50.886;6.468;2023-04-24T05:33:20;8.60;99.90
27306;DHT22;14792;50.886;6.468;2023-04-24T05:36:21;8.60;99.90
27306;DHT22;14792;50.886;6.468;2023-04-24T05:39:23;8.60;99.90
27306;DHT22;14792;50.886;6.468;2023-04-24T05:42:25;8.60;99.90
27306;DHT22;14792;50.886;6.468;2023-04-24T05:45:26;8.70;99.90
27306;DHT22;14792;50.886;6.468;2023-04-24T05:48:28;8.70;99.90
27306;DHT22;14792;50.886;6.468;2023-04-24T05:51:29;8.70;99.90
27306;DHT22;14792;50.886;6.468;2023-04-24T05:54:31;8.60;99.90
27306;DHT22;14792;50.886;6.468;2023-04-24T05:57:32;8.70;99.90
27306;DHT22;14792;50.886;6.468;2023-04-24T06:00:34;8.60;99.90
27306;DHT22;14792;50.886;6.468;2023-04-24T06:03:37;8.50;99.90
27306;DHT22;14792;50.886;6.468;2023-04-24T06:06:37;8.40;99.90
27306;DHT22;14792;50.886;6.468;2023-04-24T06:09:39;8.30;99.90
27306;DHT22;14792;50.886;6.468;2023-04-24T06:12:41;8.30;99.90
27306;DHT22;14792;50.886;6.468;2023-04-24T06:15:43;8.30;99.90
27306;DHT22;14792;50.886;6.468;2023-04-24T06:18:44;8.30;99.90
27306;DHT22;14792;50.886;6.468;2023-04-24T06:21:45;8.20;99.90
27306;DHT22;14792;50.886;6.468;2023-04-24T06:24:47;8.20;99.90
27306;DHT22;14792;50.886;6.468;2023-04-24T06:27:49;8.20;99.90
27306;DHT22;14792;50.886;6.468;2023-04-24T06:30:50;8.20;99.90
27306;DHT22;14792;50.886;6.468;2023-04-24T06:33:52;8.20;99.90
27306;DHT22;14792;50.886;6.468;2023-04-24T06:36:53;8.20;99.90
27306;DHT22;14792;50.886;6.468;2023-04-24T06:39:55;8.30;99.90
27306;DHT22;14792;50.886;6.468;2023-04-24T06:42:57;8.30;99.90
27306;DHT22;14792;50.886;6.468;2023-04-24T06:45:59;8.30;99.90
27306;DHT22;14792;50.886;6.468;2023-04-24T06:49:00;8.30;99.90
27306;DHT22;14792;50.886;6.468;2023-04-24T06:52:01;8.30;99.90
27306;DHT22;14792;50.886;6.468;2023-04-24T06:55:03;8.30;99.90
27306;DHT22;14792;50.886;6.468;2023-04-24T06:58:04;8.30;99.90
27306;DHT22;14792;50.886;6.468;2023-04-24T07:01:06;8.20;99.90
27306;DHT22;14792;50.886;6.468;2023-04-24T07:04:08;8.20;99.90
27306;DHT22;14792;50.886;6.468;2023-04-24T07:07:09;8.20;99.90
27306;DHT22;14792;50.886;6.468;2023-04-24T07:10:11;8.00;99.90
27306;DHT22;14792;50.886;6.468;2023-04-24T07:13:12;7.90;99.90
27306;DHT22;14792;50.886;6.468;2023-04-24T07:16:14;7.90;99.90
27306;DHT22;14792;50.886;6.468;2023-04-24T07:19:16;7.80;99.90
27306;DHT22;14792;50.886;6.468;2023-04-24T07:22:17;7.80;99.90
27306;DHT22;14792;50.886;6.468;2023-04-24T07:25:19;7.80;99.90
27306;DHT22;14792;50.886;6.468;2023-04-24T07:28:20;7.70;99.90
27306;DHT22;14792;50.886;6.468;2023-04-24T07:31:22;7.60;99.90
27306;DHT22;14792;50.886;6.468;2023-04-24T07:34:24;7.50;99.90
27306;DHT22;14792;50.886;6.468;2023-04-24T07:37:25;7.60;99.90
27306;DHT22;14792;50.886;6.468;2023-04-24T07:40:27;7.50;99.90
27306;DHT22;14792;50.886;6.468;2023-04-24T07:43:28;7.50;99.90
27306;DHT22;14792;50.886;6.468;2023-04-24T07:46:30;7.60;99.90
27306;DHT22;14792;50.886;6.468;2023-04-24T07:49:32;7.50;99.90
27306;DHT22;14792;50.886;6.468;2023-04-24T07:52:33;7.60;99.90
27306;DHT22;14792;50.886;6.468;2023-04-24T07:55:35;7.50;99.90
27306;DHT22;14792;50.886;6.468;2023-04-24T07:58:36;7.50;99.90
27306;DHT22;14792;50.886;6.468;2023-04-24T08:01:38;7.50;99.90
27306;DHT22;14792;50.886;6.468;2023-04-24T08:04:40;7.30;99.90
27306;DHT22;14792;50.886;6.468;2023-04-24T08:07:41;7.30;99.90
27306;DHT22;14792;50.886;6.468;2023-04-24T08:10:43;7.40;99.90
27306;DHT22;14792;50.886;6.468;2023-04-24T08:13:44;7.30;99.90
27306;DHT22;14792;50.886;6.468;2023-04-24T08:16:46;7.30;99.90
27306;DHT22;14792;50.886;6.468;2023-04-24T08:19:48;7.20;99.90
27306;DHT22;14792;50.886;6.468;2023-04-24T08:22:50;7.20;99.90
27306;DHT22;14792;50.886;6.468;2023-04-24T08:25:51;7.20;99.90
27306;DHT22;14792;50.886;6.468;2023-04-24T08:28:53;7.20;99.90
27306;DHT22;14792;50.886;6.468;2023-04-24T08:31:55;7.30;99.90
27306;DHT22;14792;50.886;6.468;2023-04-24T08:34:56;7.30;99.90
27306;DHT22;14792;50.886;6.468;2023-04-24T08:37:58;7.40;99.90
27306;DHT22;14792;50.886;6.468;2023-04-24T08:41:00;7.40;99.90
27306;DHT22;14792;50.886;6.468;2023-04-24T08:44:01;7.40;99.90
27306;DHT22;14792;50.886;6.468;2023-04-24T08:47:03;7.50;99.90
27306;DHT22;14792;50.886;6.468;2023-04-24T08:50:04;7.60;99.90
27306;DHT22;14792;50.886;6.468;2023-04-24T08:53:06;7.60;99.90
27306;DHT22;14792;50.886;6.468;2023-04-24T08:56:07;7.60;99.90
27306;DHT22;14792;50.886;6.468;2023-04-24T08:59:09;7.60;99.90
27306;DHT22;14792;50.886;6.468;2023-04-24T09:02:10;7.70;99.90
27306;DHT22;14792;50.886;6.468;2023-04-24T09:05:12;7.60;99.90
27306;DHT22;14792;50.886;6.468;2023-04-24T09:08:14;7.60;99.90
27306;DHT22;14792;50.886;6.468;2023-04-24T09:11:15;7.80;99.90
27306;DHT22;14792;50.886;6.468;2023-04-24T09:14:17;7.80;99.90
27306;DHT22;14792;50.886;6.468;2023-04-24T09:17:18;7.90;99.90
27306;DHT22;14792;50.886;6.468;2023-04-24T09:20:20;7.90;99.90
27306;DHT22;14792;50.886;6.468;2023-04-24T09:23:22;8.10;99.90
27306;DHT22;14792;50.886;6.468;2023-04-24T09:26:24;8.10;99.90
27306;DHT22;14792;50.886;6.468;2023-04-24T09:29:25;8.20;99.90
27306;DHT22;14792;50.886;6.468;2023-04-24T09:32:27;8.20;99.90
27306;DHT22;14792;50.886;6.468;2023-04-24T09:35:29;8.10;99.90
27306;DHT22;14792;50.886;6.468;2023-04-24T09:38:31;8.20;99.90
27306;DHT22;14792;50.886;6.468;2023-04-24T09:41:32;8.40;99.90
27306;DHT22;14792;50.886;6.468;2023-04-24T09:44:34;8.40;99.90
27306;DHT22;14792;50.886;6.468;2023-04-24T09:47:38;8.60;99.90
27306;DHT22;14792;50.886;6.468;2023-04-24T09:50:39;8.80;99.90
27306;DHT22;14792;50.886;6.468;2023-04-24T09:53:45;8.90;99.90
27306;DHT22;14792;50.886;6.468;2023-04-24T09:56:43;9.00;99.90
27306;DHT22;14792;50.886;6.468;2023-04-24T09:59:45;9.00;99.90
27306;DHT22;14792;50.886;6.468;2023-04-24T10:02:49;9.10;99.90
27306;DHT22;14792;50.886;6.468;2023-04-24T10:05:47;9.30;99.90
27306;DHT22;14792;50.886;6.468;2023-04-24T10:08:49;9.20;99.90
27306;DHT22;14792;50.886;6.468;2023-04-24T10:11:51;9.20;99.90
27306;DHT22;14792;50.886;6.468;2023-04-24T10:14:52;9.40;99.90
27306;DHT22;14792;50.886;6.468;2023-04-24T10:17:53;9.30;99.90
27306;DHT22;14792;50.886;6.468;2023-04-24T10:20:55;9.40;99.90
27306;DHT22;14792;50.886;6.468;2023-04-24T10:23:57;9.60;99.90
27306;DHT22;14792;50.886;6.468;2023-04-24T10:26:58;9.80;99.90
27306;DHT22;14792;50.886;6.468;2023-04-24T10:30:00;9.80;99.90
27306;DHT22;14792;50.886;6.468;2023-04-24T10:33:05;9.80;99.90
27306;DHT22;14792;50.886;6.468;2023-04-24T10:36:06;9.80;99.90
27306;DHT22;14792;50.886;6.468;2023-04-24T10:39:08;9.80;99.90
27306;DHT22;14792;50.886;6.468;2023-04-24T10:42:15;9.80;99.90
27306;DHT22;14792;50.886;6.468;2023-04-24T10:45:20;9.70;99.90
27306;DHT22;14792;50.886;6.468;2023-04-24T10:48:18;9.50;99.90
27306;DHT22;14792;50.886;6.468;2023-04-24T10:51:21;9.40;99.90
27306;DHT22;14792;50.886;6.468;2023-04-24T10:54:49;9.20;99.90
27306;DHT22;14792;50.886;6.468;2023-04-24T10:57:29;8.90;99.90
27306;DHT22;14792;50.886;6.468;2023-04-24T11:00:31;9.10;99.90
27306;DHT22;14792;50.886;6.468;2023-04-24T11:03:33;9.10;99.90
27306;DHT22;14792;50.886;6.468;2023-04-24T11:06:34;9.40;99.90
27306;DHT22;14792;50.886;6.468;2023-04-24T11:09:39;9.50;99.90
27306;DHT22;14792;50.886;6.468;2023-04-24T11:12:37;9.50;99.90
27306;DHT22;14792;50.886;6.468;2023-04-24T11:15:42;9.50;99.90
27306;DHT22;14792;50.886;6.468;2023-04-24T11:18:41;9.70;99.90
27306;DHT22;14792;50.886;6.468;2023-04-24T11:21:54;10.00;99.90
27306;DHT22;14792;50.886;6.468;2023-04-24T11:24:55;10.30;99.90
27306;DHT22;14792;50.886;6.468;2023-04-24T11:28:04;10.60;99.90
27306;DHT22;14792;50.886;6.468;2023-04-24T11:31:36;10.60;99.90
27306;DHT22;14792;50.886;6.468;2023-04-24T11:34:37;10.80;99.90
27306;DHT22;14792;50.886;6.468;2023-04-24T11:37:46;11.00;99.90
27306;DHT22;14792;50.886;6.468;2023-04-24T11:40:49;11.10;99.90
27306;DHT22;14792;50.886;6.468;2023-04-24T11:43:50;11.00;99.90
27306;DHT22;14792;50.886;6.468;2023-04-24T11:46:52;11.00;99.90
27306;DHT22;14792;50.886;6.468;2023-04-24T11:49:53;11.00;99.90
27306;DHT22;14792;50.886;6.468;2023-04-24T11:52:55;10.90;99.90
27306;DHT22;14792;50.886;6.468;2023-04-24T11:55:56;10.80;99.90
27306;DHT22;14792;50.886;6.468;2023-04-24T11:58:58;10.70;99.90
27306;DHT22;14792;50.886;6.468;2023-04-24T12:02:00;10.60;99.90
27306;DHT22;14792;50.886;6.468;2023-04-24T12:05:01;11.00;99.90
27306;DHT22;14792;50.886;6.468;2023-04-24T12:08:03;11.20;99.90
27306;DHT22;14792;50.886;6.468;2023-04-24T12:11:05;11.30;99.90
27306;DHT22;14792;50.886;6.468;2023-04-24T12:14:10;11.80;99.90
27306;DHT22;14792;50.886;6.468;2023-04-24T12:17:13;12.20;99.90
27306;DHT22;14792;50.886;6.468;2023-04-24T12:20:15;12.80;99.90
27306;DHT22;14792;50.886;6.468;2023-04-24T12:23:28;12.50;99.90
27306;DHT22;14792;50.886;6.468;2023-04-24T12:26:18;12.40;99.90
27306;DHT22;14792;50.886;6.468;2023-04-24T12:29:20;12.40;99.90
27306;DHT22;14792;50.886;6.468;2023-04-24T12:32:21;12.00;99.90
27306;DHT22;14792;50.886;6.468;2023-04-24T12:35:23;11.70;99.90
27306;DHT22;14792;50.886;6.468;2023-04-24T12:38:25;11.50;99.90
27306;DHT22;14792;50.886;6.468;2023-04-24T12:41:26;11.40;99.90
27306;DHT22;14792;50.886;6.468;2023-04-24T12:44:34;11.50;99.90
27306;DHT22;14792;50.886;6.468;2023-04-24T12:47:35;11.70;99.90
27306;DHT22;14792;50.886;6.468;2023-04-24T12:50:37;12.00;99.90
27306;DHT22;14792;50.886;6.468;2023-04-24T12:53:38;12.30;99.90
27306;DHT22;14792;50.886;6.468;2023-04-24T12:56:40;12.50;99.90
27306;DHT22;14792;50.886;6.468;2023-04-24T12:59:41;12.60;99.90
27306;DHT22;14792;50.886;6.468;2023-04-24T13:02:43;12.60;99.90
27306;DHT22;14792;50.886;6.468;2023-04-24T13:05:45;12.40;99.90
27306;DHT22;14792;50.886;6.468;2023-04-24T13:08:46;12.30;99.90
27306;DHT22;14792;50.886;6.468;2023-04-24T13:11:48;12.20;99.90
27306;DHT22;14792;50.886;6.468;2023-04-24T13:14:49;12.30;99.90
27306;DHT22;14792;50.886;6.468;2023-04-24T13:17:51;12.40;99.90
27306;DHT22;14792;50.886;6.468;2023-04-24T13:20:53;12.60;99.90
27306;DHT22;14792;50.886;6.468;2023-04-24T13:23:54;12.20;99.90
27306;DHT22;14792;50.886;6.468;2023-04-24T13:26:56;12.10;99.90
27306;DHT22;14792;50.886;6.468;2023-04-24T13:29:57;11.90;99.90
27306;DHT22;14792;50.886;6.468;2023-04-24T13:32:59;12.00;99.90
27306;DHT22;14792;50.886;6.468;2023-04-24T13:36:00;11.80;99.90
27306;DHT22;14792;50.886;6.468;2023-04-24T13:39:02;11.80;99.90
27306;DHT22;14792;50.886;6.468;2023-04-24T13:42:04;11.70;99.90
27306;DHT22;14792;50.886;6.468;2023-04-24T13:45:05;11.70;99.90
27306;DHT22;14792;50.886;6.468;2023-04-24T13:48:07;11.50;99.90
27306;DHT22;14792;50.886;6.468;2023-04-24T13:51:09;11.70;99.90
27306;DHT22;14792;50.886;6.468;2023-04-24T13:54:10;12.00;99.90
27306;DHT22;14792;50.886;6.468;2023-04-24T13:57:13;11.90;99.90
27306;DHT22;14792;50.886;6.468;2023-04-24T14:00:13;11.90;99.90
27306;DHT22;14792;50.886;6.468;2023-04-24T14:03:15;12.10;99.90
27306;DHT22;14792;50.886;6.468;2023-04-24T14:06:17;12.20;99.90
27306;DHT22;14792;50.886;6.468;2023-04-24T14:09:18;12.40;99.90
27306;DHT22;14792;50.886;6.468;2023-04-24T14:12:20;12.40;99.90
27306;DHT22;14792;50.886;6.468;2023-04-24T14:15:21;12.30;99.90
27306;DHT22;14792;50.886;6.468;2023-04-24T14:18:23;12.30;99.90
27306;DHT22;14792;50.886;6.468;2023-04-24T14:21:25;12.30;99.90
27306;DHT22;14792;50.886;6.468;2023-04-24T14:24:26;12.30;99.90
27306;DHT22;14792;50.886;6.468;2023-04-24T14:27:28;12.90;99.90
27306;DHT22;14792;50.886;6.468;2023-04-24T14:30:29;13.40;99.90
27306;DHT22;14792;50.886;6.468;2023-04-24T14:33:31;13.80;99.90
27306;DHT22;14792;50.886;6.468;2023-04-24T14:36:33;13.80;99.90
27306;DHT22;14792;50.886;6.468;2023-04-24T14:39:34;13.40;99.90
27306;DHT22;14792;50.886;6.468;2023-04-24T14:42:36;13.40;99.90
27306;DHT22;14792;50.886;6.468;2023-04-24T14:45:37;13.90;99.90
27306;DHT22;14792;50.886;6.468;2023-04-24T14:48:39;13.90;99.90
27306;DHT22;14792;50.886;6.468;2023-04-24T14:51:40;14.30;99.90
27306;DHT22;14792;50.886;6.468;2023-04-24T14:54:43;14.90;99.90
27306;DHT22;14792;50.886;6.468;2023-04-24T14:57:44;15.10;99.90
27306;DHT22;14792;50.886;6.468;2023-04-24T15:00:45;15.20;99.90
27306;DHT22;14792;50.886;6.468;2023-04-24T15:03:47;14.60;99.90
27306;DHT22;14792;50.886;6.468;2023-04-24T15:06:51;14.10;99.90
27306;DHT22;14792;50.886;6.468;2023-04-24T15:09:53;13.70;99.90
27306;DHT22;14792;50.886;6.468;2023-04-24T15:12:54;13.70;99.90
27306;DHT22;14792;50.886;6.468;2023-04-24T15:15:56;13.50;99.90
27306;DHT22;14792;50.886;6.468;2023-04-24T15:18:58;13.40;99.90
27306;DHT22;14792;50.886;6.468;2023-04-24T15:22:00;13.30;99.90
27306;DHT22;14792;50.886;6.468;2023-04-24T15:25:02;13.50;99.90
27306;DHT22;14792;50.886;6.468;2023-04-24T15:28:04;13.60;99.90
27306;DHT22;14792;50.886;6.468;2023-04-24T15:31:05;13.50;99.90
27306;DHT22;14792;50.886;6.468;2023-04-24T15:34:07;13.40;99.90
27306;DHT22;14792;50.886;6.468;2023-04-24T15:37:08;13.00;99.90
27306;DHT22;14792;50.886;6.468;2023-04-24T15:40:10;13.00;99.90
27306;DHT22;14792;50.886;6.468;2023-04-24T15:43:12;12.80;99.90
27306;DHT22;14792;50.886;6.468;2023-04-24T15:46:13;12.70;99.90
27306;DHT22;14792;50.886;6.468;2023-04-24T15:49:15;12.60;99.90
27306;DHT22;14792;50.886;6.468;2023-04-24T15:52:16;12.60;99.90
27306;DHT22;14792;50.886;6.468;2023-04-24T15:55:18;12.30;99.90
27306;DHT22;14792;50.886;6.468;2023-04-24T15:58:19;12.30;99.90
27306;DHT22;14792;50.886;6.468;2023-04-24T16:01:21;12.20;99.90
27306;DHT22;14792;50.886;6.468;2023-04-24T16:04:23;12.30;99.90
27306;DHT22;14792;50.886;6.468;2023-04-24T16:07:24;12.40;99.90
27306;DHT22;14792;50.886;6.468;2023-04-24T16:10:26;12.50;99.90
27306;DHT22;14792;50.886;6.468;2023-04-24T16:13:27;12.50;99.90
27306;DHT22;14792;50.886;6.468;2023-04-24T16:16:29;12.60;99.90
27306;DHT22;14792;50.886;6.468;2023-04-24T16:19:31;12.70;99.90
27306;DHT22;14792;50.886;6.468;2023-04-24T16:22:32;12.90;99.90
27306;DHT22;14792;50.886;6.468;2023-04-24T16:25:34;12.80;99.90
27306;DHT22;14792;50.886;6.468;2023-04-24T16:28:35;12.70;99.90
27306;DHT22;14792;50.886;6.468;2023-04-24T16:31:37;12.90;99.90
27306;DHT22;14792;50.886;6.468;2023-04-24T16:34:39;12.70;99.90
27306;DHT22;14792;50.886;6.468;2023-04-24T16:37:40;12.50;99.90
27306;DHT22;14792;50.886;6.468;2023-04-24T16:40:42;12.30;99.90
27306;DHT22;14792;50.886;6.468;2023-04-24T16:43:44;12.30;99.90
27306;DHT22;14792;50.886;6.468;2023-04-24T16:46:45;12.30;99.90
27306;DHT22;14792;50.886;6.468;2023-04-24T16:49:47;12.20;99.90
27306;DHT22;14792;50.886;6.468;2023-04-24T16:52:48;12.10;99.90
27306;DHT22;14792;50.886;6.468;2023-04-24T16:55:50;12.00;99.90
27306;DHT22;14792;50.886;6.468;2023-04-24T16:58:52;12.00;99.90
27306;DHT22;14792;50.886;6.468;2023-04-24T17:01:53;12.00;99.90
27306;DHT22;14792;50.886;6.468;2023-04-24T17:04:55;11.90;99.90
27306;DHT22;14792;50.886;6.468;2023-04-24T17:07:57;12.00;99.90
27306;DHT22;14792;50.886;6.468;2023-04-24T17:10:58;12.10;99.90
27306;DHT22;14792;50.886;6.468;2023-04-24T17:14:00;12.20;99.90
27306;DHT22;14792;50.886;6.468;2023-04-24T17:17:01;12.20;99.90
27306;DHT22;14792;50.886;6.468;2023-04-24T17:20:03;12.20;99.90
27306;DHT22;14792;50.886;6.468;2023-04-24T17:23:05;12.00;99.90
27306;DHT22;14792;50.886;6.468;2023-04-24T17:26:06;12.00;99.90
27306;DHT22;14792;50.886;6.468;2023-04-24T17:29:08;11.80;99.90
27306;DHT22;14792;50.886;6.468;2023-04-24T17:32:09;11.60;99.90
27306;DHT22;14792;50.886;6.468;2023-04-24T17:35:11;11.60;99.90
27306;DHT22;14792;50.886;6.468;2023-04-24T17:38:12;11.50;99.90
27306;DHT22;14792;50.886;6.468;2023-04-24T17:41:14;11.50;99.90
27306;DHT22;14792;50.886;6.468;2023-04-24T17:44:16;11.40;99.90
27306;DHT22;14792;50.886;6.468;2023-04-24T17:47:17;11.40;99.90
27306;DHT22;14792;50.886;6.468;2023-04-24T17:50:19;11.30;99.90
27306;DHT22;14792;50.886;6.468;2023-04-24T17:53:20;11.20;99.90
27306;DHT22;14792;50.886;6.468;2023-04-24T17:56:22;11.10;99.90
27306;DHT22;14792;50.886;6.468;2023-04-24T17:59:24;11.00;99.90
27306;DHT22;14792;50.886;6.468;2023-04-24T18:02:25;10.80;99.90
27306;DHT22;14792;50.886;6.468;2023-04-24T18:05:27;10.80;99.90
27306;DHT22;14792;50.886;6.468;2023-04-24T18:08:28;10.70;99.90
27306;DHT22;14792;50.886;6.468;2023-04-24T18:11:30;10.60;99.90
27306;DHT22;14792;50.886;6.468;2023-04-24T18:14:32;10.40;99.90
27306;DHT22;14792;50.886;6.468;2023-04-24T18:17:33;10.20;99.90
27306;DHT22;14792;50.886;6.468;2023-04-24T18:20:35;10.10;99.90
27306;DHT22;14792;50.886;6.468;2023-04-24T18:23:36;10.10;99.90
27306;DHT22;14792;50.886;6.468;2023-04-24T18:26:38;10.00;99.90
27306;DHT22;14792;50.886;6.468;2023-04-24T18:29:39;9.90;99.90
27306;DHT22;14792;50.886;6.468;2023-04-24T18:32:41;9.90;99.90
27306;DHT22;14792;50.886;6.468;2023-04-24T18:35:43;9.80;99.90
27306;DHT22;14792;50.886;6.468;2023-04-24T18:38:44;9.70;99.90
27306;DHT22;14792;50.886;6.468;2023-04-24T18:41:46;9.70;99.90
27306;DHT22;14792;50.886;6.468;2023-04-24T18:44:48;9.70;99.90
27306;DHT22;14792;50.886;6.468;2023-04-24T18:47:49;9.60;99.90
27306;DHT22;14792;50.886;6.468;2023-04-24T18:50:51;9.50;99.90
27306;DHT22;14792;50.886;6.468;2023-04-24T18:53:53;9.50;99.90
27306;DHT22;14792;50.886;6.468;2023-04-24T18:56:54;9.40;99.90
27306;DHT22;14792;50.886;6.468;2023-04-24T18:59:56;9.40;99.90
27306;DHT22;14792;50.886;6.468;2023-04-24T19:02:57;9.40;99.90
27306;DHT22;14792;50.886;6.468;2023-04-24T19:05:59;9.40;99.90
27306;DHT22;14792;50.886;6.468;2023-04-24T19:09:01;9.40;99.90
27306;DHT22;14792;50.886;6.468;2023-04-24T19:12:02;9.40;99.90
27306;DHT22;14792;50.886;6.468;2023-04-24T19:15:04;9.40;99.90
27306;DHT22;14792;50.886;6.468;2023-04-24T19:18:05;9.40;99.90
27306;DHT22;14792;50.886;6.468;2023-04-24T19:21:07;9.40;99.90